Time;durP1;ratioP1;P1;durP2;ratioP2;P2;SDS_P1;SDS_P2;PMS_P1;PMS_P2;Temp;Humidity;BMP_temperature;BMP_pressure;BME280_temperature;BME280_humidity;BME280_pressure;Samples;Min_cycle;Max_cycle;Signal;HPM_P1;HPM_P2
2023/04/02 00:02:19;;;;;;;4.15;1.65;;;;;;;17.83;57.59;99565.72;4993523;28;20117;-66
2023/04/02 00:05:18;;;;;;;4.95;1.70;;;;;;;17.82;57.40;99568.44;4993464;28;20077;-65
2023/04/02 00:07:50;;;;;;;4.13;1.52;;;;;;;17.79;57.24;99568.56;4992736;28;20328;-66
2023/04/02 00:10:35;;;;;;;3.78;1.50;;;;;;;17.79;57.22;99576.50;4993130;28;20120;-66
2023/04/02 00:13:05;;;;;;;5.25;1.88;;;;;;;17.79;57.10;99579.13;4993249;28;20088;-65
2023/04/02 00:15:31;;;;;;;5.57;1.80;;;;;;;17.76;57.12;99576.63;4996514;28;20088;-66
2023/04/02 00:17:57;;;;;;;4.03;1.30;;;;;;;17.75;57.26;99573.13;5012814;28;20474;-67
2023/04/02 00:20:25;;;;;;;5.13;1.45;;;;;;;17.75;57.03;99567.00;5012639;28;20030;-65
2023/04/02 00:22:51;;;;;;;4.30;1.38;;;;;;;17.75;56.76;99564.34;5012407;28;20022;-66
2023/04/02 00:25:16;;;;;;;4.82;1.38;;;;;;;17.70;56.62;99570.72;5012779;28;20021;-66
2023/04/02 00:27:42;;;;;;;3.35;1.13;;;;;;;17.73;56.58;99582.03;5012441;28;20377;-66
2023/04/02 00:30:11;;;;;;;4.32;1.48;;;;;;;17.70;56.78;99576.00;5012345;28;20064;-65
2023/04/02 00:32:38;;;;;;;4.97;1.38;;;;;;;17.73;56.63;99579.41;5012423;28;20076;-66
2023/04/02 00:35:10;;;;;;;5.55;1.52;;;;;;;17.70;56.72;99583.03;5012354;28;20045;-66
2023/04/02 00:37:40;;;;;;;4.63;1.30;;;;;;;17.68;56.59;99577.00;5012066;28;20029;-66
2023/04/02 00:40:30;;;;;;;3.90;1.35;;;;;;;17.66;56.56;99574.41;5012309;28;20495;-65
2023/04/02 00:42:59;;;;;;;4.55;1.30;;;;;;;17.67;56.50;99570.84;5012306;28;20033;-66
2023/04/02 00:45:28;;;;;;;3.88;1.30;;;;;;;17.66;56.48;99573.53;5012183;28;20057;-67
2023/04/02 00:47:55;;;;;;;2.88;1.00;;;;;;;17.64;56.26;99576.28;5012164;28;20034;-65
2023/04/02 00:50:28;;;;;;;2.85;1.10;;;;;;;17.65;56.08;99579.75;5011616;28;20053;-66
2023/04/02 00:52:56;;;;;;;6.05;1.27;;;;;;;17.64;56.33;99578.03;5010443;28;20113;-65
2023/04/02 00:55:49;;;;;;;3.17;1.10;;;;;;;17.63;56.14;99584.25;4992592;28;20022;-66
2023/04/02 00:58:24;;;;;;;4.05;1.45;;;;;;;17.60;56.50;99579.09;4995267;28;20042;-65
2023/04/02 01:00:51;;;;;;;3.65;1.23;;;;;;;17.61;56.22;99581.66;5011933;28;20018;-66
2023/04/02 01:03:16;;;;;;;3.88;1.27;;;;;;;17.61;56.30;99581.66;5012030;28;20034;-65
2023/04/02 01:05:54;;;;;;;4.72;1.10;;;;;;;17.61;55.88;99576.41;5011744;28;20400;-65
2023/04/02 01:08:30;;;;;;;3.42;1.10;;;;;;;17.61;55.83;99586.09;5012144;28;20025;-66
2023/04/02 01:11:07;;;;;;;1.45;0.73;;;;;;;17.58;55.92;99587.09;5001586;28;20508;-65
2023/04/02 01:13:42;;;;;;;3.08;0.70;;;;;;;17.59;55.96;99594.09;4992314;28;20036;-65
2023/04/02 01:16:23;;;;;;;2.97;0.98;;;;;;;17.58;55.58;99602.94;4992342;28;20042;-66
2023/04/02 01:18:49;;;;;;;4.38;0.95;;;;;;;17.54;55.94;99593.44;4992364;28;20110;-65
2023/04/02 01:21:36;;;;;;;3.90;1.15;;;;;;;17.55;55.91;99592.50;5003648;28;20041;-66
2023/04/02 01:24:03;;;;;;;2.28;0.88;;;;;;;17.55;55.78;99595.13;5015994;28;20029;-65
2023/04/02 01:27:00;;;;;;;3.85;0.82;;;;;;;17.51;55.82;99598.84;5015791;28;20040;-65
2023/04/02 01:29:45;;;;;;;2.22;0.70;;;;;;;17.50;55.89;99597.13;5015797;28;20026;-66
2023/04/02 01:32:16;;;;;;;2.72;1.08;;;;;;;17.51;55.81;99593.56;5015743;28;20026;-66
2023/04/02 01:34:45;;;;;;;2.85;1.10;;;;;;;17.51;55.98;99601.47;5015462;28;20022;-65
2023/04/02 01:37:22;;;;;;;4.55;1.30;;;;;;;17.50;55.58;99599.75;5015598;28;20054;-66
2023/04/02 01:39:50;;;;;;;3.38;0.90;;;;;;;17.50;55.80;99605.03;5015624;28;20121;-67
2023/04/02 01:42:31;;;;;;;2.70;0.80;;;;;;;17.49;55.70;99608.59;5015486;28;20030;-66
2023/04/02 01:45:15;;;;;;;2.13;0.73;;;;;;;17.49;55.65;99608.59;5015366;28;20026;-67
2023/04/02 01:47:42;;;;;;;2.67;0.95;;;;;;;17.47;55.43;99602.56;5015556;28;20030;-65
2023/04/02 01:50:32;;;;;;;2.85;0.98;;;;;;;17.48;55.42;99605.09;5014863;28;20415;-65
2023/04/02 01:53:04;;;;;;;2.35;0.80;;;;;;;17.47;55.70;99605.19;4996006;28;20030;-65
2023/04/02 01:55:31;;;;;;;3.10;0.73;;;;;;;17.47;55.55;99610.47;4978196;28;20058;-65
2023/04/02 01:57:59;;;;;;;2.33;0.75;;;;;;;17.47;55.51;99599.91;4995818;28;20031;-66
2023/04/02 02:00:29;;;;;;;2.60;0.73;;;;;;;17.45;55.50;99592.91;4995391;28;20030;-67
2023/04/02 02:02:55;;;;;;;2.92;0.98;;;;;;;17.46;55.79;99588.50;4994344;28;20036;-66
2023/04/02 02:05:22;;;;;;;3.03;1.00;;;;;;;17.44;55.52;99585.91;4995521;28;20022;-65
2023/04/02 02:07:49;;;;;;;2.13;0.70;;;;;;;17.43;55.49;99592.13;4980343;28;20455;-66
2023/04/02 02:10:27;;;;;;;2.70;0.70;;;;;;;17.43;55.36;99584.19;4975799;28;20473;-67
2023/04/02 02:12:53;;;;;;;1.85;0.70;;;;;;;17.42;55.50;99587.78;4975764;28;20053;-66
2023/04/02 02:15:22;;;;;;;2.38;0.90;;;;;;;17.44;55.43;99583.28;4992690;28;20038;-65
2023/04/02 02:17:48;;;;;;;1.77;0.70;;;;;;;17.43;55.33;99589.47;4994992;28;20034;-66
2023/04/02 02:20:14;;;;;;;2.33;0.77;;;;;;;17.41;55.38;99586.06;4995275;28;20101;-65
2023/04/02 02:22:46;;;;;;;1.80;0.80;;;;;;;17.41;55.11;99586.06;5010529;28;20387;-66
2023/04/02 02:25:25;;;;;;;2.30;0.80;;;;;;;17.42;55.27;99586.91;5014517;28;20030;-66
2023/04/02 02:28:05;;;;;;;2.33;0.80;;;;;;;17.40;55.14;99584.34;5011906;28;20124;-65
2023/04/02 02:30:45;;;;;;;3.15;0.98;;;;;;;17.40;54.97;99583.50;4994900;28;20030;-65
2023/04/02 02:33:22;;;;;;;2.38;0.70;;;;;;;17.38;55.15;99596.75;4993483;28;20033;-66
2023/04/02 02:35:53;;;;;;;3.20;0.80;;;;;;;17.37;55.27;99584.47;4995025;28;20098;-64
2023/04/02 02:38:47;;;;;;;1.70;0.60;;;;;;;17.37;54.98;99595.03;4994807;28;20504;-65
2023/04/02 02:41:17;;;;;;;1.65;0.52;;;;;;;17.38;55.15;99591.47;5006979;28;20053;-65
2023/04/02 02:43:55;;;;;;;2.40;0.60;;;;;;;17.37;55.07;99597.66;5014329;28;20365;-68
2023/04/02 02:46:23;;;;;;;2.88;1.00;;;;;;;17.37;55.07;99605.56;5002416;28;20042;-67
2023/04/02 02:48:51;;;;;;;3.22;1.23;;;;;;;17.35;55.26;99604.81;4976849;28;20023;-67
2023/04/02 02:51:25;;;;;;;1.83;0.63;;;;;;;17.34;55.14;99610.97;4994767;28;20026;-67
2023/04/02 02:53:55;;;;;;;3.38;0.80;;;;;;;17.31;55.03;99597.94;4994509;28;20054;-67
2023/04/02 02:56:22;;;;;;;2.72;0.70;;;;;;;17.34;54.79;99605.69;4994686;28;20361;-67
2023/04/02 02:58:51;;;;;;;2.00;0.73;;;;;;;17.34;55.11;99610.13;4994522;28;20049;-68
2023/04/02 03:01:17;;;;;;;2.15;0.63;;;;;;;17.32;55.11;99612.84;4996654;28;20076;-68
2023/04/02 03:03:44;;;;;;;3.03;1.00;;;;;;;17.34;54.77;99610.13;5010727;28;20429;-68
2023/04/02 03:06:15;;;;;;;1.27;0.50;;;;;;;17.31;55.03;99617.25;5013807;28;20054;-66
2023/04/02 03:08:46;;;;;;;2.50;0.77;;;;;;;17.31;55.00;99616.41;5014029;28;20088;-67
2023/04/02 03:11:40;;;;;;;1.13;0.50;;;;;;;17.33;55.20;99625.09;5012718;28;20065;-67
2023/04/02 03:14:33;;;;;;;1.42;0.50;;;;;;;17.30;55.11;99614.69;4994436;28;20085;-67
2023/04/02 03:17:15;;;;;;;2.13;0.50;;;;;;;17.30;54.65;99614.69;4991658;28;20034;-67
2023/04/02 03:19:51;;;;;;;2.33;0.98;;;;;;;17.28;54.69;99616.50;4994070;28;20113;-66
2023/04/02 03:22:25;;;;;;;1.67;0.65;;;;;;;17.28;54.79;99621.78;4986683;28;20102;-65
2023/04/02 03:25:01;;;;;;;3.55;1.10;;;;;;;17.26;54.66;99619.25;4974398;28;20045;-64
2023/04/02 03:27:35;;;;;;;1.42;0.60;;;;;;;17.24;54.77;99626.34;4974512;28;20034;-66
2023/04/02 03:30:19;;;;;;;2.13;0.70;;;;;;;17.26;55.00;99634.19;4974154;28;20023;-64
2023/04/02 03:32:49;;;;;;;2.40;0.85;;;;;;;17.25;54.96;99637.75;4983193;28;20034;-66
2023/04/02 03:35:24;;;;;;;2.38;0.63;;;;;;;17.25;54.90;99637.75;4993850;28;20057;-65
2023/04/02 03:38:17;;;;;;;2.15;1.00;;;;;;;17.25;54.82;99621.94;4993735;28;20495;-66
2023/04/02 03:41:05;;;;;;;1.35;0.50;;;;;;;17.24;54.68;99620.22;4993791;28;20033;-65
2023/04/02 03:43:39;;;;;;;1.00;0.38;;;;;;;17.26;54.86;99627.16;4999737;28;20042;-65
2023/04/02 03:46:29;;;;;;;2.95;0.63;;;;;;;17.24;54.59;99636.06;5013050;28;20045;-65
2023/04/02 03:48:58;;;;;;;3.30;0.80;;;;;;;17.23;54.58;99621.16;5001336;28;20040;-65
2023/04/02 03:51:32;;;;;;;2.60;0.60;;;;;;;17.23;54.68;99626.44;5013214;28;20037;-66
2023/04/02 03:53:58;;;;;;;2.38;0.50;;;;;;;17.22;54.60;99622.06;5002771;28;20026;-66
2023/04/02 03:56:39;;;;;;;2.35;0.80;;;;;;;17.21;54.51;99615.94;4996599;28;20030;-64
2023/04/02 03:59:37;;;;;;;1.30;0.52;;;;;;;17.20;54.99;99619.50;5012713;28;20035;-65
2023/04/02 04:02:33;;;;;;;2.10;0.70;;;;;;;17.20;54.73;99624.78;4933150;29;20055;-65
2023/04/02 04:05:00;;;;;;;1.58;0.50;;;;;;;17.20;54.43;99618.63;4925954;29;20043;-65
2023/04/02 04:07:33;;;;;;;2.45;0.90;;;;;;;17.20;54.70;99619.50;4914194;29;20036;-65
2023/04/02 04:10:00;;;;;;;1.80;0.50;;;;;;;17.19;54.74;99617.75;4914280;29;20032;-65
2023/04/02 04:12:34;;;;;;;2.50;0.57;;;;;;;17.20;54.49;99618.63;4914060;29;20040;-65
2023/04/02 04:15:08;;;;;;;1.27;0.47;;;;;;;17.17;54.75;99615.22;4913797;29;20059;-65
2023/04/02 04:18:09;;;;;;;2.05;0.60;;;;;;;17.20;54.56;99619.50;4914010;29;20560;-65
2023/04/02 04:20:55;;;;;;;2.95;0.70;;;;;;;17.17;54.49;99620.50;4914100;29;20028;-66
2023/04/02 04:23:34;;;;;;;2.13;0.60;;;;;;;17.20;54.35;99629.19;4914049;29;20440;-67
2023/04/02 04:26:18;;;;;;;1.38;0.57;;;;;;;17.16;54.62;99634.56;4913896;29;20115;-67
2023/04/02 04:28:56;;;;;;;2.97;0.57;;;;;;;17.18;54.43;99638.03;4921034;29;20058;-64
2023/04/02 04:31:54;;;;;;;2.40;0.70;;;;;;;17.17;54.74;99636.31;4932573;29;20040;-64
2023/04/02 04:34:30;;;;;;;1.90;0.63;;;;;;;17.17;54.68;99636.31;4932843;29;20490;-65
2023/04/02 04:37:00;;;;;;;1.55;0.47;;;;;;;17.15;54.54;99639.94;4949451;28;20056;-65
2023/04/02 04:39:38;;;;;;;1.23;0.50;;;;;;;17.14;54.55;99640.88;5012466;28;20404;-67
2023/04/02 04:42:06;;;;;;;3.15;0.80;;;;;;;17.12;54.55;99646.19;5011258;28;20084;-65
2023/04/02 04:44:43;;;;;;;1.70;0.50;;;;;;;17.09;54.38;99646.31;4992707;28;20018;-64
2023/04/02 04:47:18;;;;;;;1.60;0.75;;;;;;;17.11;54.42;99649.75;4992657;28;20030;-65
2023/04/02 04:49:46;;;;;;;1.20;0.50;;;;;;;17.11;54.35;99647.13;5001569;28;20045;-66
2023/04/02 04:52:17;;;;;;;1.48;0.50;;;;;;;17.10;54.48;99648.00;5012184;28;20033;-65
2023/04/02 04:54:45;;;;;;;3.25;0.70;;;;;;;17.10;54.31;99652.44;5005657;28;20100;-65
2023/04/02 04:57:28;;;;;;;2.55;0.70;;;;;;;17.11;54.36;99657.66;5011261;28;20028;-65
2023/04/02 05:00:05;;;;;;;1.75;0.65;;;;;;;17.11;54.35;99659.44;5012066;28;20057;-66
2023/04/02 05:02:37;;;;;;;0.65;0.30;;;;;;;17.11;54.27;99657.66;5012255;28;20022;-65
2023/04/02 05:05:02;;;;;;;2.75;0.95;;;;;;;17.12;54.20;99661.16;5004140;28;20492;-65
2023/04/02 05:07:42;;;;;;;2.83;0.60;;;;;;;17.10;54.58;99658.56;4992354;28;20029;-65
2023/04/02 05:10:31;;;;;;;1.35;0.52;;;;;;;17.11;54.29;99668.22;4992501;28;20027;-65
2023/04/02 05:13:20;;;;;;;2.40;0.70;;;;;;;17.09;54.24;99663.91;4992229;28;20030;-66
2023/04/02 05:16:14;;;;;;;4.55;0.98;;;;;;;17.10;54.35;99660.34;4998586;28;20120;-65
2023/04/02 05:18:45;;;;;;;3.38;0.50;;;;;;;17.10;54.37;99666.47;4972983;28;20027;-65
2023/04/02 05:21:49;;;;;;;1.88;0.55;;;;;;;17.08;54.53;99668.31;4988414;28;20023;-64
2023/04/02 05:24:36;;;;;;;1.65;0.57;;;;;;;17.07;54.17;99671.88;4932108;29;20051;-65
2023/04/02 05:27:18;;;;;;;0.98;0.40;;;;;;;17.08;54.29;99676.22;4931850;29;20032;-65
2023/04/02 05:29:49;;;;;;;2.47;0.70;;;;;;;17.08;53.97;99667.44;4932324;29;20024;-64
2023/04/02 05:32:31;;;;;;;1.65;0.50;;;;;;;17.07;54.24;99682.44;4941761;29;20039;-66
2023/04/02 05:34:57;;;;;;;2.25;0.63;;;;;;;17.05;54.19;99684.28;4951262;29;20031;-65
2023/04/02 05:37:28;;;;;;;1.48;0.40;;;;;;;17.06;54.13;99687.75;4951276;29;20027;-65
2023/04/02 05:39:56;;;;;;;1.38;0.50;;;;;;;17.07;54.16;99687.72;4951240;29;20047;-65
2023/04/02 05:42:28;;;;;;;2.20;0.50;;;;;;;17.06;54.27;99688.63;4950685;29;20493;-64
2023/04/02 05:45:07;;;;;;;1.73;0.52;;;;;;;17.04;54.11;99683.41;4951188;29;20043;-65
2023/04/02 05:47:34;;;;;;;1.27;0.43;;;;;;;17.06;54.29;99690.41;4951275;29;20039;-65
2023/04/02 05:50:03;;;;;;;2.85;0.68;;;;;;;17.05;54.26;99686.94;4950775;29;20122;-66
2023/04/02 05:52:32;;;;;;;1.45;0.60;;;;;;;17.03;54.32;99691.38;4951065;29;20057;-66
2023/04/02 05:55:36;;;;;;;2.13;0.65;;;;;;;17.02;53.98;99694.91;4932865;29;20040;-65
2023/04/02 05:58:25;;;;;;;1.92;0.70;;;;;;;17.02;54.18;99708.09;4958600;28;20039;-65
2023/04/02 06:00:50;;;;;;;2.65;0.80;;;;;;;17.01;53.96;99701.09;4995785;28;20041;-65
2023/04/02 06:03:26;;;;;;;2.03;0.60;;;;;;;17.03;54.17;99701.94;5011718;28;20030;-65
2023/04/02 06:05:54;;;;;;;1.40;0.70;;;;;;;17.03;54.12;99701.94;5011678;28;20546;-67
2023/04/02 06:08:26;;;;;;;2.20;1.08;;;;;;;17.07;54.17;99713.19;5014630;28;20040;-66
2023/04/02 06:11:04;;;;;;;1.55;0.50;;;;;;;17.06;53.96;99708.84;4997671;28;20092;-65
2023/04/02 06:13:30;;;;;;;1.55;0.50;;;;;;;17.06;53.69;99716.75;5015014;28;20029;-65
2023/04/02 06:15:56;;;;;;;2.13;0.60;;;;;;;17.07;54.01;99714.06;5014945;28;20029;-64
2023/04/02 06:18:33;;;;;;;4.00;1.00;;;;;;;17.04;54.17;99719.47;5000361;28;20038;-65
2023/04/02 06:21:00;;;;;;;3.72;0.75;;;;;;;17.09;53.81;99732.47;4995209;28;20022;-64
2023/04/02 06:23:42;;;;;;;2.67;0.98;;;;;;;17.06;53.68;99720.28;4995179;28;20030;-65
2023/04/02 06:26:20;;;;;;;2.15;0.60;;;;;;;17.06;53.92;99733.44;4995084;28;20077;-65
2023/04/02 06:28:50;;;;;;;2.45;0.73;;;;;;;17.03;53.97;99734.44;5009320;28;20495;-66
2023/04/02 06:31:29;;;;;;;1.73;0.52;;;;;;;17.04;53.88;99732.63;5014574;28;20413;-66
2023/04/02 06:33:55;;;;;;;2.55;0.63;;;;;;;17.04;53.84;99735.28;5014666;28;20045;-66
2023/04/02 06:36:22;;;;;;;2.78;0.63;;;;;;;17.04;53.75;99730.00;5014706;28;20026;-65
2023/04/02 06:38:49;;;;;;;3.10;0.77;;;;;;;17.03;53.99;99729.16;5002118;28;20089;-65
2023/04/02 06:41:23;;;;;;;2.17;0.68;;;;;;;17.04;53.70;99735.28;4994803;28;20037;-65
2023/04/02 06:44:01;;;;;;;2.10;0.63;;;;;;;17.02;53.93;99731.81;4994853;28;20045;-64
2023/04/02 06:46:37;;;;;;;2.15;0.52;;;;;;;17.00;54.03;99731.03;4994740;28;20034;-65
2023/04/02 06:49:12;;;;;;;2.67;0.63;;;;;;;16.97;53.71;99732.00;5008257;28;20045;-66
2023/04/02 06:51:40;;;;;;;2.63;0.77;;;;;;;16.97;54.06;99739.06;5014139;28;20065;-67
2023/04/02 06:54:13;;;;;;;3.67;1.00;;;;;;;16.97;54.04;99750.47;5002671;28;20058;-64
2023/04/02 06:56:51;;;;;;;3.05;0.73;;;;;;;16.99;53.83;99755.66;4994743;28;20391;-66
2023/04/02 06:59:17;;;;;;;2.05;0.70;;;;;;;16.98;53.65;99751.31;5009813;28;20387;-65
2023/04/02 07:02:14;;;;;;;1.52;0.60;;;;;;;16.99;54.07;99753.00;5013920;28;20018;-66
2023/04/02 07:04:40;;;;;;;1.98;0.70;;;;;;;17.02;53.83;99758.19;5014038;28;20036;-66
2023/04/02 07:07:05;;;;;;;1.88;0.50;;;;;;;17.02;53.83;99753.81;4996011;28;20022;-67
2023/04/02 07:09:31;;;;;;;2.85;0.90;;;;;;;17.04;53.74;99756.38;4996796;28;20055;-66
2023/04/02 07:11:57;;;;;;;3.22;1.00;;;;;;;17.05;53.82;99758.09;4994360;28;20033;-65
2023/04/02 07:14:22;;;;;;;2.95;0.68;;;;;;;17.06;54.08;99749.28;4994382;28;20030;-64
2023/04/02 07:16:47;;;;;;;3.42;0.90;;;;;;;17.06;53.73;99749.28;4994134;28;20056;-65
2023/04/02 07:19:20;;;;;;;3.63;0.85;;;;;;;17.05;53.81;99752.84;5007225;28;20032;-66
2023/04/02 07:21:46;;;;;;;1.90;0.70;;;;;;;17.07;53.62;99743.06;5013376;28;20026;-67
2023/04/02 07:24:12;;;;;;;3.50;1.08;;;;;;;17.07;53.82;99745.72;5013617;28;20041;-64
2023/04/02 07:26:38;;;;;;;2.63;1.13;;;;;;;17.08;53.63;99738.63;5013807;28;20049;-65
2023/04/02 07:29:07;;;;;;;4.25;1.00;;;;;;;17.07;53.47;99740.44;5006171;28;20432;-66
2023/04/02 07:31:32;;;;;;;2.30;0.70;;;;;;;17.08;53.76;99736.88;4993827;28;20057;-65
2023/04/02 07:33:59;;;;;;;2.65;0.77;;;;;;;17.12;53.69;99734.97;5001218;28;20066;-66
2023/04/02 07:36:27;;;;;;;2.72;0.63;;;;;;;17.10;53.60;99740.28;5013114;28;20030;-66
2023/04/02 07:38:53;;;;;;;1.85;0.50;;;;;;;17.11;53.51;99752.59;5009332;28;20029;-66
2023/04/02 07:41:18;;;;;;;4.07;0.80;;;;;;;17.11;53.53;99755.22;4993749;28;20022;-65
2023/04/02 07:43:44;;;;;;;4.60;1.23;;;;;;;17.13;53.59;99755.13;4993030;28;20113;-64
2023/04/02 07:46:15;;;;;;;4.13;0.85;;;;;;;17.12;53.35;99759.56;4992034;28;20073;-64
2023/04/02 07:48:40;;;;;;;3.25;0.90;;;;;;;17.12;53.62;99754.31;4990850;28;20456;-66
2023/04/02 07:51:18;;;;;;;4.30;0.88;;;;;;;17.14;53.66;99763.00;4992748;28;20038;-66
2023/04/02 07:53:43;;;;;;;2.92;0.88;;;;;;;17.15;53.40;99763.88;4973604;28;20034;-66
2023/04/02 07:56:13;;;;;;;3.30;0.85;;;;;;;17.17;53.57;99749.69;4992950;28;20019;-65
2023/04/02 07:58:39;;;;;;;3.22;1.27;;;;;;;17.17;53.32;99767.28;4990376;28;20045;-66
2023/04/02 08:01:15;;;;;;;4.47;0.80;;;;;;;17.18;53.66;99758.44;4994413;28;20476;-67
2023/04/02 08:03:40;;;;;;;;;;;;;;;17.17;53.40;99762.88;4990921;28;20019;-65
2023/04/02 08:06:06;;;;;;;2.90;0.80;;;;;;;17.18;53.33;99771.63;4992927;28;19929;-65
2023/04/02 08:08:31;;;;;;;3.42;0.68;;;;;;;17.22;53.44;99775.00;4993145;28;20076;-65
2023/04/02 08:10:56;;;;;;;1.58;0.60;;;;;;;17.25;53.64;99774.91;4992967;28;20048;-66
2023/04/02 08:13:22;;;;;;;5.97;1.55;;;;;;;17.26;53.52;99776.59;4988792;28;20034;-65
2023/04/02 08:15:47;;;;;;;4.32;0.93;;;;;;;17.26;54.65;99777.47;4989786;28;20030;-64
2023/04/02 08:18:13;;;;;;;7.93;1.42;;;;;;;17.28;55.43;99783.53;4978257;28;20025;-65
2023/04/02 08:20:38;;;;;;;6.65;1.48;;;;;;;17.32;55.75;99786.91;4992343;28;20568;-65
2023/04/02 08:23:05;;;;;;;6.43;1.23;;;;;;;17.34;55.78;99782.41;4992481;28;20609;-65
2023/04/02 08:25:31;;;;;;;7.55;1.17;;;;;;;17.36;56.19;99783.25;4992512;28;20033;-65
2023/04/02 08:27:56;;;;;;;7.18;1.50;;;;;;;17.39;56.51;99776.97;4992327;28;20030;-65
2023/04/02 08:30:22;;;;;;;8.20;1.50;;;;;;;17.40;56.23;99790.13;4993823;28;20126;-65
2023/04/02 08:32:47;;;;;;;7.15;1.25;;;;;;;17.42;56.60;99796.19;4988620;28;20034;-63
2023/04/02 08:35:15;;;;;;;6.63;1.83;;;;;;;17.42;56.62;99798.81;4985634;28;20026;-63
2023/04/02 08:37:41;;;;;;;5.72;1.38;;;;;;;17.45;56.83;99803.09;4985203;28;20041;-63
2023/04/02 08:40:14;;;;;;;10.65;1.85;;;;;;;17.49;56.70;99798.56;4991487;28;20027;-64
2023/04/02 08:42:49;;;;;;;7.45;1.60;;;;;;;17.52;56.95;99793.16;4990290;28;20034;-63
2023/04/02 08:45:24;;;;;;;7.40;1.73;;;;;;;17.53;57.12;99801.00;4992327;28;20445;-64
2023/04/02 08:47:54;;;;;;;9.00;1.70;;;;;;;17.55;56.87;99799.19;4974464;28;20030;-64
2023/04/02 08:50:46;;;;;;;13.63;1.80;;;;;;;17.60;56.81;99817.44;4992092;28;20052;-63
2023/04/02 08:53:19;;;;;;;8.48;1.63;;;;;;;17.58;57.10;99803.47;4988170;28;20045;-65
2023/04/02 08:56:19;;;;;;;10.88;1.77;;;;;;;17.60;57.13;99817.44;4992457;28;20512;-66
2023/04/02 08:59:01;;;;;;;8.85;1.83;;;;;;;17.65;56.60;99818.13;4988250;28;20040;-69
2023/04/02 09:01:50;;;;;;;9.93;1.75;;;;;;;17.64;56.92;99813.78;4992534;28;20054;-69
2023/04/02 09:04:19;;;;;;;8.63;1.95;;;;;;;17.66;56.88;99811.91;5000480;28;20042;-68
2023/04/02 09:06:47;;;;;;;10.20;2.40;;;;;;;17.67;56.66;99818.91;5012236;28;20036;-68
2023/04/02 09:09:14;;;;;;;17.50;2.65;;;;;;;17.67;56.36;99818.91;5011965;28;20072;-67
2023/04/02 09:12:02;;;;;;;12.95;3.60;;;;;;;17.67;56.73;99818.91;5011913;28;20033;-67
2023/04/02 09:15:01;;;;;;;10.18;2.17;;;;;;;17.67;56.59;99829.47;5011841;28;20092;-67
2023/04/02 09:17:27;;;;;;;11.02;2.25;;;;;;;17.68;56.19;99827.69;4932096;29;20036;-69
2023/04/02 09:20:07;;;;;;;15.63;2.33;;;;;;;17.67;56.32;99829.47;4931960;29;20069;-69
2023/04/02 09:22:33;;;;;;;15.23;2.55;;;;;;;17.71;55.89;99832.84;4932226;29;20118;-67
2023/04/02 09:25:04;;;;;;;13.30;2.65;;;;;;;17.72;55.92;99837.19;4932191;29;20463;-67
2023/04/02 09:27:32;;;;;;;13.40;2.30;;;;;;;17.71;55.72;99839.00;4932116;29;20127;-68
2023/04/02 09:30:30;;;;;;;10.43;2.00;;;;;;;17.74;55.71;99845.06;4932282;29;20072;-68
2023/04/02 09:33:01;;;;;;;9.18;2.50;;;;;;;17.75;55.61;99842.34;4927550;29;20040;-68
2023/04/02 09:35:31;;;;;;;12.10;2.20;;;;;;;17.77;55.39;99844.94;4932210;29;20742;-68
2023/04/02 09:38:09;;;;;;;11.25;3.05;;;;;;;17.80;55.33;99855.34;4932081;29;20039;-67
2023/04/02 09:40:49;;;;;;;12.20;2.42;;;;;;;17.81;55.31;99847.38;4932164;29;20040;-67
2023/04/02 09:43:26;;;;;;;11.65;2.28;;;;;;;17.85;54.98;99850.75;4935297;29;20077;-69
2023/04/02 09:46:11;;;;;;;11.05;2.45;;;;;;;17.84;54.98;99843.75;4935708;29;20031;-68
2023/04/02 09:48:44;;;;;;;13.00;2.75;;;;;;;17.85;55.22;99842.81;4919339;29;20044;-68
2023/04/02 09:51:12;;;;;;;10.77;2.38;;;;;;;17.85;54.79;99848.97;4935417;29;20036;-68
2023/04/02 09:53:50;;;;;;;10.45;2.15;;;;;;;17.85;54.79;99848.09;4946944;28;20041;-69
2023/04/02 09:56:20;;;;;;;13.90;2.40;;;;;;;17.83;54.86;99848.16;4995627;28;20022;-67
2023/04/02 09:59:03;;;;;;;8.85;1.98;;;;;;;17.83;54.84;99849.97;5003806;28;20084;-67
2023/04/02 10:01:38;;;;;;;16.05;2.30;;;;;;;17.82;54.90;99837.69;4976011;28;20102;-67
2023/04/02 10:04:06;;;;;;;10.13;2.30;;;;;;;17.82;54.61;99837.69;4987081;28;20512;-67
2023/04/02 10:06:33;;;;;;;11.73;2.35;;;;;;;17.80;54.91;99835.09;4994942;28;20015;-68
2023/04/02 10:09:20;;;;;;;14.48;2.25;;;;;;;17.81;55.00;99835.94;4977316;28;20026;-67
2023/04/02 10:11:47;;;;;;;9.15;1.92;;;;;;;17.80;54.91;99850.06;4994841;28;20049;-68
2023/04/02 10:14:20;;;;;;;10.02;2.25;;;;;;;17.84;54.95;99849.03;4994945;28;20176;-67
2023/04/02 10:16:50;;;;;;;8.15;1.67;;;;;;;17.82;54.67;99858.81;4997099;28;20230;-68
2023/04/02 10:19:22;;;;;;;8.43;1.70;;;;;;;17.85;54.74;99861.31;4997184;28;20443;-68
2023/04/02 10:21:51;;;;;;;8.38;1.90;;;;;;;17.86;54.78;99855.09;5014485;28;20060;-67
2023/04/02 10:24:17;;;;;;;4.88;1.40;;;;;;;17.85;54.55;99854.25;5014322;28;20034;-68
2023/04/02 10:27:16;;;;;;;7.38;2.10;;;;;;;17.84;54.84;99863.06;5014431;28;20037;-68
2023/04/02 10:29:50;;;;;;;6.90;1.70;;;;;;;17.85;54.54;99862.19;5013720;28;20064;-68
2023/04/02 10:32:28;;;;;;;5.05;1.65;;;;;;;17.87;54.74;99851.53;4994472;28;20076;-68
2023/04/02 10:35:07;;;;;;;5.55;1.60;;;;;;;17.87;54.65;99856.81;4994037;28;20117;-69
2023/04/02 10:37:45;;;;;;;7.75;1.70;;;;;;;17.89;54.71;99869.94;4994206;28;20041;-65
2023/04/02 10:40:24;;;;;;;5.55;1.45;;;;;;;17.90;54.33;99869.03;4997792;28;20030;-68
2023/04/02 10:43:08;;;;;;;8.32;1.80;;;;;;;17.89;54.61;99868.19;5014037;28;20061;-68
2023/04/02 10:45:36;;;;;;;5.60;1.45;;;;;;;17.87;54.68;99866.53;5013607;28;20026;-68
2023/04/02 10:48:10;;;;;;;4.88;1.33;;;;;;;17.87;54.56;99866.53;5013535;28;20026;-68
2023/04/02 10:51:02;;;;;;;4.47;1.17;;;;;;;17.91;54.66;99868.97;5006331;28;20054;-68
2023/04/02 10:53:56;;;;;;;6.93;1.50;;;;;;;17.91;54.38;99868.97;4993278;28;20026;-69
2023/04/02 10:56:25;;;;;;;3.95;1.33;;;;;;;17.92;54.36;99873.31;4994128;28;20093;-68
2023/04/02 10:59:01;;;;;;;6.10;1.30;;;;;;;17.93;54.61;99861.84;4993717;28;20022;-68
2023/04/02 11:01:29;;;;;;;5.03;1.30;;;;;;;17.93;54.59;99861.84;5006800;28;20045;-67
2023/04/02 11:04:01;;;;;;;3.35;1.02;;;;;;;17.93;54.43;99853.06;5013471;28;20046;-67
2023/04/02 11:06:37;;;;;;;4.47;1.40;;;;;;;17.94;54.69;99855.66;5013689;28;20537;-66
2023/04/02 11:09:06;;;;;;;4.03;1.20;;;;;;;17.94;54.60;99853.00;5013656;28;20041;-68
2023/04/02 11:11:39;;;;;;;4.38;1.15;;;;;;;17.93;54.52;99861.84;5010983;28;20038;-68
2023/04/02 11:14:11;;;;;;;4.65;1.15;;;;;;;17.97;54.30;99860.78;4986900;28;20035;-65
2023/04/02 11:16:37;;;;;;;5.43;1.23;;;;;;;17.95;54.43;99854.72;4980197;28;20023;-68
2023/04/02 11:19:14;;;;;;;4.88;1.50;;;;;;;17.96;54.67;99861.72;4981861;28;20029;-66
2023/04/02 11:21:42;;;;;;;6.55;1.08;;;;;;;17.94;54.53;99858.28;4988204;28;20140;-66
2023/04/02 11:24:31;;;;;;;4.50;1.13;;;;;;;17.97;54.53;99855.50;5000322;28;20014;-66
2023/04/02 11:27:30;;;;;;;3.60;1.10;;;;;;;17.98;54.54;99862.50;4987106;28;20154;-69
2023/04/02 11:30:02;;;;;;;4.43;1.30;;;;;;;17.95;54.58;99860.00;4959576;28;20039;-68
2023/04/02 11:32:31;;;;;;;7.35;1.80;;;;;;;17.98;54.46;99859.88;4983161;28;20169;-68
2023/04/02 11:35:00;;;;;;;10.27;3.25;;;;;;;17.98;54.61;99857.22;4988135;28;20022;-68
2023/04/02 11:37:42;;;;;;;16.38;5.03;;;;;;;18.02;54.49;99846.53;4992236;28;20018;-67
2023/04/02 11:40:10;;;;;;;21.30;6.85;;;;;;;18.02;54.50;99859.75;4993364;28;20061;-68
2023/04/02 11:42:37;;;;;;;20.65;7.38;;;;;;;18.04;54.64;99864.03;4993267;28;20046;-68
2023/04/02 11:45:24;;;;;;;27.10;7.93;;;;;;;18.03;54.99;99872.91;4993210;28;20034;-68
2023/04/02 11:48:02;;;;;;;27.27;8.45;;;;;;;18.04;54.87;99869.31;4993297;28;20031;-69
2023/04/02 11:50:29;;;;;;;26.50;9.25;;;;;;;18.03;54.78;99888.75;4991293;28;20050;-63
2023/04/02 11:53:00;;;;;;;21.75;7.88;;;;;;;18.05;54.89;99886.00;4990685;28;20034;-63
2023/04/02 11:55:31;;;;;;;19.83;7.03;;;;;;;18.06;55.03;99880.69;4973699;28;20023;-64
2023/04/02 11:58:03;;;;;;;27.55;7.68;;;;;;;18.05;54.94;99864.88;4973825;28;20038;-63
2023/04/02 12:01:13;;;;;;;22.95;7.35;;;;;;;18.04;55.18;99868.44;4999868;28;20509;-64
2023/04/02 12:04:05;;;;;;;20.65;6.72;;;;;;;18.03;55.16;99866.75;5012645;28;20570;-64
2023/04/02 12:06:46;;;;;;;21.30;7.18;;;;;;;18.02;54.80;99865.03;4977521;28;20114;-63